AirNav   Phillips 66 Aviation Fuel
 
 846 users online  

1NJ7 Skytop Farms Heliport
Towaco, New Jersey, USA

GOING TO TOWACO?


FAA INFORMATION EFFECTIVE 20 JULY 2017

Location

FAA Identifier: 1NJ7
Lat/Long: 40-56-50.3530N / 074-21-15.5430W
40-56.839217N / 074-21.259050W
40.9473203 / -74.3543175
(estimated)
Elevation: 850 ft. / 259 m (estimated)
Variation: 13W (1990)
From city: 5 miles W of TOWACO, NJ
Time zone: UTC -4 (UTC -5 during Standard Time)
Zip code: 07082

Heliport Operations

Heliport use: Private use. Permission required prior to landing
Activation date: 07/1992
Control tower: no
ARTCC: NEW YORK CENTER
FSS: MILLVILLE FLIGHT SERVICE STATION
Attendance: 0800-1700
Wind indicator: yes
Segmented circle: no

Heliport Communications

WX ASOS at CDW (5 nm SE): PHONE 973-575-4417
WX AWOS-3 at MMU (9 nm S): PHONE 973-290-0135
WX ASOS at TEB (15 nm SE): PHONE 201-393-0855
WX ASOS at EWR (17 nm SE): PHONE 973-621-2892
WX ASOS at FWN (19 nm NW): 118.525 (973-875-0859)
  • FREQ 131.77 AVBL FOR MONITORING.

Nearby radio navigation aids

VOR radial/distance  VOR name  Freq  Var
SAXr142/11.0SPARTA VORTAC115.7011W
TEBr305/14.5TETERBORO VOR/DME108.4011W
BWZr078/23.0BROADWAY VOR/DME114.2011W
STWr108/23.5STILLWATER VOR/DME109.6011W
LGAr306/24.1LA GUARDIA VOR/DME113.1012W
SBJr049/28.1SOLBERG VOR/DME112.9010W
CRIr325/29.0CANARSIE VOR/DME112.3011W
HUOr170/29.7HUGUENOT VOR/DME116.1011W
JFKr317/32.5KENNEDY VOR/DME115.9012W
COLr358/39.2COLTS NECK VOR/DME115.4011W

 
NDB name  Hdg/Dist  Freq  Var  ID
CHATHAM028/12.925413WCAT -.-. .- -
TETERBORO322/13.221412WTE - .
BRIDGE329/31.241412WOGY --- --. -.--
STANWYCK214/37.526112WSKU ... -.- ..-

Heliport Services

Runway Information

Helipad H1

Dimensions: 20 x 20 ft. / 6 x 6 m
Surface: asphalt
Traffic pattern: leftleft

Heliport Ownership and Management from official FAA records

Ownership: Privately-owned
Owner: ANTHONY PIO COSTA
GOWORLDVIEW DR
TOWACO, NJ 07082
Phone 201-334-7675
A. PIOCOSTA CELL#: 973-600-7226 OTHER EMAIL: CARMEN@PIOCOSTA.COM
Manager: ANTHONY PIO COSTA
GOWORLDVIEW DR
TOWACO, NJ 07082
Phone 201-334-7675

Instrument Procedures

There are no published instrument procedures at 1NJ7.

Some nearby airports with instrument procedures:

N07 - Lincoln Park Airport (2 nm E)
KCDW - Essex County Airport (5 nm SE)
KMMU - Morristown Municipal Airport (9 nm S)
4N1 - Greenwood Lake Airport (11 nm N)
KTEB - Teterboro Airport (15 nm SE)
KEWR - Newark Liberty International Airport (17 nm SE)
12N - Aeroflex-Andover Airport (18 nm W)
KFWN - Sussex Airport (19 nm NW)
KJRA - West 30th St Heliport (20 nm SE)
 
Loc | Ops | Rwys | IFR | FBO | Links
Com | Nav | Svcs | Stats | Notes


 
Area around 1NJ7 (Skytop Farms Heliport)
 
Road maps at: MapQuest Bing Google
 
Aerial photo
No photo
 
Sectional chart

 
Airport distance calculator
Flying to Skytop Farms Heliport? Find the distance to fly.

From to 1NJ7

Sunrise and sunset
Times for 22-Jul-2017
 Local
(UTC-4)
 Zulu
(UTC)
Morning civil twilight05:1309:13
Sunrise05:4509:45
Sunset20:2200:22
Evening civil twilight20:5400:54

Current date and time
Zulu (UTC)  22-Jul-2017 13:23:06
Local (UTC-4)  22-Jul-2017 09:23:06
 
METAR
KCDW 
5nm SE 
221253Z 03005KT 10SM CLR 26/16 A2991 RMK AO2 SLP131 T02610161
KMMU 
10nm S 
221245Z 00000KT 10SM FEW150 26/17 A2991
KTEB 
15nm E 
221251Z 36007KT 10SM CLR 28/17 A2988 RMK AO2 SLP119 T02780167
K12N 
18nm W 
221254Z AUTO 00000KT 24/18 A2994 RMK AO1 SLP128 T02440178
KEWR 
18nm SE 
221251Z 01008KT 10SM FEW120 BKN250 29/14 A2989 RMK AO2 SLP121 T02890144
KFWN 
20nm NW 
221253Z AUTO 00000KT 10SM CLR 23/20 A2993 RMK AO2 SLP131 T02280200 $
TAF
KTEB 
15nm E 
221151Z 2212/2312 02004KT P6SM FEW250 FM221600 28005KT P6SM SCT210 FM221800 23008KT P6SM SCT130 FM222100 27008KT P6SM BKN150 FM222200 29008KT P6SM VCTS SCT060CB BKN120 FM230000 29005KT 3SM SHRA BKN060 PROB30 2300/2305 2SM TSRA BKN035CB FM230500 04004KT 3SM SHRA SCT035 OVC050 PROB30 2305/2310 2SM TSRA BKN025CB FM231000 04004KT P6SM VCTS OVC045CB
KEWR 
18nm SE 
221151Z 2212/2318 01007KT P6SM FEW250 FM221700 23008KT P6SM SCT200 FM222100 27008KT P6SM BKN150 FM222200 29008KT P6SM VCTS SCT060CB BKN120 FM230000 32006KT 3SM SHRA BKN060 PROB30 2300/2302 2SM TSRA BKN040CB FM230200 04005KT 3SM SHRA SCT035 OVC060 PROB30 2302/2308 2SM TSRA BKN025CB FM231000 03007KT P6SM VCTS OVC040CB FM231600 06007KT P6SM VCTS BKN035CB
NOTAMs
Click for the latest NOTAMs
NOTAMs are issued by the DoD/FAA and will open in a separate window not controlled by AirNav.

 

 
 

Would you like to see your business listed on this page?

 If your business provides an interesting product or service to pilots, flight crews, aircraft, or users of the Skytop Farms Heliport, you should consider listing it here.  To start the listing process, click on the button below
 
Add a business
 

Other Pages about Skytop Farms Heliport

Update a link
 
Copyright © AirNav, LLC. All rights reserved. Privacy Policy  Contact